createdAt,value
2019-04-18T00:01:10.117Z,5.20
2019-04-18T00:03:51.949Z,5.10
2019-04-18T00:06:23.412Z,5.00
2019-04-18T00:08:52.598Z,5.00
2019-04-18T00:11:22.091Z,5.00
2019-04-18T00:13:51.443Z,5.00
2019-04-18T00:16:24.399Z,5.00
2019-04-18T00:18:51.576Z,5.00
2019-04-18T00:21:20.783Z,4.90
2019-04-18T00:23:49.927Z,4.90
2019-04-18T00:26:19.076Z,4.80
2019-04-18T00:28:49.962Z,4.80
2019-04-18T00:31:18.999Z,4.80
2019-04-18T00:33:50.796Z,4.70
2019-04-18T00:36:18.775Z,4.70
2019-04-18T00:38:47.924Z,4.70
2019-04-18T00:41:17.130Z,4.60
2019-04-18T00:43:46.326Z,4.60
2019-04-18T00:46:16.943Z,4.60
2019-04-18T00:48:46.332Z,4.60
2019-04-18T00:51:15.498Z,4.50
2019-04-18T00:53:45.148Z,4.50
2019-04-18T00:56:14.356Z,4.50
2019-04-18T00:58:43.560Z,4.50
2019-04-18T01:01:14.230Z,4.40
2019-04-18T01:03:43.899Z,4.40
2019-04-18T01:06:16.489Z,4.40
2019-04-18T01:08:44.191Z,4.30
2019-04-18T01:11:13.639Z,4.30
2019-04-18T01:13:43.376Z,4.30
2019-04-18T01:16:13.196Z,4.30
2019-04-18T01:18:44.011Z,4.20
2019-04-18T01:21:13.176Z,4.20
2019-04-18T01:23:42.291Z,4.10
2019-04-18T01:26:14.235Z,4.10
2019-04-18T01:28:42.232Z,4.10
2019-04-18T01:31:11.380Z,4.10
2019-04-18T01:33:40.576Z,4.10
2019-04-18T01:36:09.736Z,4.00
2019-04-18T01:38:42.115Z,4.00
2019-04-18T01:41:11.464Z,4.00
2019-04-18T01:43:49.340Z,3.90
2019-04-18T01:46:46.524Z,3.90
2019-04-18T01:49:15.982Z,3.90
2019-04-18T01:51:45.157Z,3.80
2019-04-18T01:54:14.474Z,3.80
2019-04-18T01:56:43.671Z,3.80
2019-04-18T01:59:12.829Z,3.80
2019-04-18T02:01:41.949Z,3.80
2019-04-18T02:04:11.097Z,3.80
2019-04-18T02:06:41.412Z,3.80
2019-04-18T02:09:12.034Z,3.70
2019-04-18T02:11:41.197Z,3.70
2019-04-18T02:14:10.395Z,3.60
2019-04-18T02:16:40.255Z,3.60
2019-04-18T02:19:10.336Z,3.50
2019-04-18T02:21:40.418Z,3.50
2019-04-18T02:24:10.128Z,3.50
2019-04-18T02:26:39.451Z,3.40
2019-04-18T02:29:10.263Z,3.40
2019-04-18T02:31:39.261Z,3.40
2019-04-18T02:34:08.419Z,3.40
2019-04-18T02:36:38.298Z,3.30
2019-04-18T02:39:08.147Z,3.30
2019-04-18T02:41:39.981Z,3.30
2019-04-18T02:44:08.360Z,3.30
2019-04-18T02:46:37.485Z,3.20
2019-04-18T02:49:06.611Z,3.20
2019-04-18T02:51:35.756Z,3.20
2019-04-18T02:54:09.202Z,3.10
2019-04-18T02:56:39.344Z,3.10
2019-04-18T02:59:16.082Z,3.10
2019-04-18T03:02:11.847Z,3.10
2019-04-18T03:04:43.832Z,3.10
2019-04-18T03:07:13.012Z,3.10
2019-04-18T03:09:42.124Z,3.10
2019-04-18T03:12:11.301Z,3.00
2019-04-18T03:14:43.476Z,3.00
2019-04-18T03:17:11.569Z,3.00
2019-04-18T03:19:41.859Z,2.90
2019-04-18T03:22:11.938Z,2.90
2019-04-18T03:24:41.192Z,2.90
2019-04-18T03:27:10.381Z,2.90
2019-04-18T03:29:39.428Z,2.80
2019-04-18T03:32:09.489Z,2.80
2019-04-18T03:34:39.903Z,2.80
2019-04-18T03:37:18.696Z,2.80
2019-04-18T03:39:50.786Z,2.70
2019-04-18T03:42:18.674Z,2.70
2019-04-18T03:44:56.003Z,2.70
2019-04-18T03:47:32.492Z,2.70
2019-04-18T03:50:01.661Z,2.60
2019-04-18T03:52:31.419Z,2.60
2019-04-18T03:55:00.571Z,2.60
2019-04-18T03:57:30.712Z,2.60
2019-04-18T04:00:00.307Z,2.60
2019-04-18T04:02:29.469Z,2.60
2019-04-18T04:04:58.644Z,2.60
2019-04-18T04:07:28.135Z,2.60
2019-04-18T04:09:57.392Z,2.60
2019-04-18T04:12:27.855Z,2.60
2019-04-18T04:14:57.237Z,2.60
2019-04-18T04:17:29.173Z,2.60
2019-04-18T04:19:58.833Z,2.70
2019-04-18T04:22:28.167Z,2.70
2019-04-18T04:24:57.275Z,2.70
2019-04-18T04:27:26.450Z,2.80
2019-04-18T04:29:55.512Z,2.80
2019-04-18T04:32:28.682Z,2.90
2019-04-18T04:34:55.464Z,3.00
2019-04-18T04:37:37.307Z,3.00
2019-04-18T04:39:56.799Z,3.10
2019-04-18T04:42:26.935Z,3.20
2019-04-18T04:44:57.148Z,3.20
2019-04-18T04:47:39.364Z,3.30
2019-04-18T04:50:19.582Z,3.40
2019-04-18T04:52:48.996Z,3.50
2019-04-18T04:55:20.051Z,3.60
2019-04-18T04:58:06.091Z,3.90
2019-04-18T05:00:41.330Z,4.90
2019-04-18T05:03:15.584Z,6.10
2019-04-18T05:05:42.506Z,7.20
2019-04-18T05:08:11.773Z,8.20
2019-04-18T05:10:44.132Z,9.20
2019-04-18T05:13:12.743Z,10.20
2019-04-18T05:15:41.923Z,10.90
2019-04-18T05:18:11.181Z,11.70
2019-04-18T05:20:40.591Z,12.40
2019-04-18T05:23:09.603Z,13.10
2019-04-18T05:25:38.707Z,13.80
2019-04-18T05:28:07.795Z,14.30
2019-04-18T05:30:37.248Z,14.90
2019-04-18T05:33:10.577Z,15.40
2019-04-18T05:35:37.237Z,16.00
2019-04-18T05:38:06.352Z,16.40
2019-04-18T05:40:36.583Z,16.80
2019-04-18T05:43:06.215Z,17.10
2019-04-18T05:45:35.352Z,17.50
2019-04-18T05:48:16.797Z,17.80
2019-04-18T05:50:56.251Z,18.10
2019-04-18T05:53:33.748Z,18.30
2019-04-18T05:56:03.260Z,18.50
2019-04-18T05:58:39.051Z,18.70
2019-04-18T06:01:41.749Z,18.90
2019-04-18T06:04:23.389Z,19.10
2019-04-18T06:07:15.801Z,19.20
2019-04-18T06:09:42.811Z,19.30
2019-04-18T06:12:19.440Z,19.40
2019-04-18T06:14:59.404Z,19.50
2019-04-18T06:17:35.343Z,19.60
2019-04-18T06:20:06.138Z,19.60
2019-04-18T06:22:37.420Z,19.60
2019-04-18T06:25:24.798Z,19.70
2019-04-18T06:27:58.567Z,19.70
2019-04-18T06:30:58.931Z,19.60
2019-04-18T06:33:36.137Z,19.40
2019-04-18T06:36:02.894Z,19.30
2019-04-18T06:38:32.955Z,19.20
2019-04-18T06:41:05.530Z,18.90
2019-04-18T06:43:33.135Z,18.40
2019-04-18T06:46:02.324Z,17.30
2019-04-18T06:48:35.547Z,16.30
2019-04-18T06:51:02.172Z,15.40
2019-04-18T06:53:31.287Z,14.60
2019-04-18T06:56:00.370Z,14.00
2019-04-18T06:58:35.312Z,13.50
2019-04-18T07:01:02.777Z,13.10
2019-04-18T07:03:31.171Z,12.70
2019-04-18T07:06:00.743Z,12.50
2019-04-18T07:08:44.662Z,12.30
2019-04-18T07:11:15.118Z,12.10
2019-04-18T07:13:57.287Z,12.00
2019-04-18T07:16:26.554Z,11.90
2019-04-18T07:18:55.954Z,11.80
2019-04-18T07:21:32.340Z,11.80
2019-04-18T07:24:01.512Z,11.70
2019-04-18T07:26:30.624Z,11.70
2019-04-18T07:28:59.829Z,11.80
2019-04-18T07:31:32.204Z,11.80
2019-04-18T07:33:59.774Z,11.90
2019-04-18T07:36:29.005Z,12.00
2019-04-18T07:39:01.078Z,12.10
2019-04-18T07:41:29.254Z,12.10
2019-04-18T07:43:58.726Z,12.20
2019-04-18T07:46:29.615Z,12.30
2019-04-18T07:48:58.783Z,12.30
2019-04-18T07:51:27.787Z,12.40
2019-04-18T07:53:58.020Z,12.50
2019-04-18T07:56:31.796Z,12.60
2019-04-18T07:59:06.253Z,12.70
2019-04-18T08:01:31.671Z,12.80
2019-04-18T08:04:12.233Z,12.90
2019-04-18T08:06:31.679Z,13.00
2019-04-18T08:09:00.753Z,13.10
2019-04-18T08:11:33.631Z,13.20
2019-04-18T08:14:00.738Z,13.30
2019-04-18T08:16:29.927Z,13.50
2019-04-18T08:18:59.125Z,13.60
2019-04-18T08:21:30.540Z,13.70
2019-04-18T08:23:59.671Z,13.80
2019-04-18T08:26:29.452Z,13.90
2019-04-18T08:29:01.699Z,14.10
2019-04-18T08:31:34.093Z,14.10
2019-04-18T08:34:01.253Z,14.30
2019-04-18T08:36:30.657Z,14.40
2019-04-18T08:39:21.715Z,14.50
2019-04-18T08:42:02.235Z,14.60
2019-04-18T08:44:45.548Z,14.80
2019-04-18T08:47:17.474Z,14.90
2019-04-18T08:49:52.216Z,15.10
2019-04-18T08:52:25.153Z,15.20
2019-04-18T08:55:02.382Z,15.30
2019-04-18T08:57:31.879Z,15.40
2019-04-18T09:00:00.905Z,15.60
2019-04-18T09:02:30.083Z,15.70
2019-04-18T09:05:16.321Z,15.90
2019-04-18T09:07:33.363Z,16.00
2019-04-18T09:10:06.727Z,16.20
2019-04-18T09:12:38.134Z,16.30
2019-04-18T09:15:03.986Z,16.40
2019-04-18T09:17:35.166Z,16.70
2019-04-18T09:20:11.402Z,16.80
2019-04-18T09:22:35.536Z,17.00
2019-04-18T09:25:07.414Z,17.20
2019-04-18T09:27:36.663Z,17.20
2019-04-18T09:30:07.171Z,17.30
2019-04-18T09:32:36.471Z,17.50
2019-04-18T09:35:06.795Z,17.60
2019-04-18T09:37:36.412Z,17.70
2019-04-18T09:40:05.876Z,17.80
2019-04-18T09:42:35.045Z,18.00
2019-04-18T09:45:05.019Z,18.10
2019-04-18T09:47:34.167Z,18.20
2019-04-18T09:50:03.387Z,18.30
2019-04-18T09:52:32.584Z,18.40
2019-04-18T09:55:01.782Z,18.50
2019-04-18T09:57:30.779Z,18.60
2019-04-18T10:00:09.919Z,18.70
2019-04-18T10:02:30.816Z,18.80
2019-04-18T10:04:59.845Z,18.80
2019-04-18T10:07:29.043Z,18.90
2019-04-18T10:09:59.849Z,19.00
2019-04-18T10:12:31.832Z,19.00
2019-04-18T10:15:12.129Z,19.10
2019-04-18T10:17:30.945Z,19.10
2019-04-18T10:20:00.495Z,19.20
2019-04-18T10:22:32.076Z,19.20
2019-04-18T10:25:07.194Z,19.30
2019-04-18T10:27:39.260Z,19.30
2019-04-18T10:30:30.199Z,19.30
2019-04-18T10:32:53.934Z,19.30
2019-04-18T10:35:23.083Z,19.40
2019-04-18T10:37:52.326Z,19.40
2019-04-18T10:40:22.203Z,19.40
2019-04-18T10:42:51.279Z,19.40
2019-04-18T10:45:21.460Z,19.40
2019-04-18T10:47:53.405Z,19.40
2019-04-18T10:50:23.683Z,19.40
2019-04-18T10:52:55.543Z,19.50
2019-04-18T10:55:27.841Z,19.60
2019-04-18T10:57:54.621Z,19.70
2019-04-18T11:00:24.312Z,19.70
2019-04-18T11:02:53.526Z,19.70
2019-04-18T11:05:23.025Z,19.70
2019-04-18T11:07:52.901Z,19.60
2019-04-18T11:10:22.168Z,19.60
2019-04-18T11:12:51.441Z,19.60
2019-04-18T11:15:21.811Z,19.70
2019-04-18T11:17:51.060Z,19.70
2019-04-18T11:20:20.862Z,19.80
2019-04-18T11:22:49.992Z,19.80
2019-04-18T11:25:19.137Z,19.90
2019-04-18T11:27:49.506Z,19.80
2019-04-18T11:30:22.965Z,19.90
2019-04-18T11:32:49.848Z,19.80
2019-04-18T11:35:19.099Z,19.70
2019-04-18T11:37:50.365Z,19.70
2019-04-18T11:40:19.690Z,19.70
2019-04-18T11:42:48.763Z,19.60
2019-04-18T11:45:18.495Z,19.60
2019-04-18T11:47:47.648Z,19.60
2019-04-18T11:50:17.525Z,19.70
2019-04-18T11:52:46.630Z,19.70
2019-04-18T11:55:16.275Z,19.90
2019-04-18T11:57:48.396Z,19.90
2019-04-18T12:00:32.949Z,20.00
2019-04-18T12:03:06.235Z,20.00
2019-04-18T12:05:35.487Z,20.00
2019-04-18T12:08:04.666Z,20.00
2019-04-18T12:10:33.917Z,20.00
2019-04-18T12:13:03.656Z,20.00
2019-04-18T12:15:32.928Z,20.00
2019-04-18T12:18:02.583Z,20.00
2019-04-18T12:20:32.084Z,20.00
2019-04-18T12:23:05.906Z,20.10
2019-04-18T12:25:32.304Z,20.00
2019-04-18T12:28:01.501Z,20.00
2019-04-18T12:30:30.639Z,20.00
2019-04-18T12:32:59.843Z,20.00
2019-04-18T12:35:29.052Z,20.10
2019-04-18T12:37:58.287Z,20.10
2019-04-18T12:40:27.434Z,20.10
2019-04-18T12:42:56.659Z,20.00
2019-04-18T12:45:25.726Z,20.00
2019-04-18T12:47:55.207Z,20.00
2019-04-18T12:50:28.406Z,20.00
2019-04-18T12:52:57.118Z,20.00
2019-04-18T12:55:26.331Z,19.90
2019-04-18T12:57:55.414Z,19.90
2019-04-18T13:00:25.799Z,19.90
2019-04-18T13:02:55.082Z,19.90
2019-04-18T13:05:24.306Z,20.00
2019-04-18T13:07:59.102Z,20.00
2019-04-18T13:10:39.059Z,20.00
2019-04-18T13:13:16.322Z,20.00
2019-04-18T13:15:57.076Z,20.10
2019-04-18T13:18:26.223Z,20.10
2019-04-18T13:20:55.555Z,20.20
2019-04-18T13:23:24.761Z,20.10
2019-04-18T13:25:54.202Z,20.20
2019-04-18T13:28:23.358Z,20.10
2019-04-18T13:30:52.583Z,20.10
2019-04-18T13:33:21.715Z,20.20
2019-04-18T13:35:50.899Z,20.20
2019-04-18T13:38:20.030Z,20.20
2019-04-18T13:40:49.310Z,20.20
2019-04-18T13:43:18.498Z,20.30
2019-04-18T13:45:47.646Z,20.30
2019-04-18T13:48:16.859Z,20.30
2019-04-18T13:50:46.322Z,20.30
2019-04-18T13:53:17.933Z,20.30
2019-04-18T13:55:47.371Z,20.30
2019-04-18T13:58:16.830Z,20.30
2019-04-18T14:00:46.303Z,20.30
2019-04-18T14:03:15.528Z,20.30
2019-04-18T14:05:44.723Z,20.40
2019-04-18T14:08:13.988Z,20.40
2019-04-18T14:10:43.279Z,20.40
2019-04-18T14:13:14.396Z,20.40
2019-04-18T14:15:43.970Z,20.40
2019-04-18T14:18:14.192Z,20.30
2019-04-18T14:20:43.417Z,20.30
2019-04-18T14:23:12.596Z,20.30
2019-04-18T14:25:42.682Z,20.30
2019-04-18T14:28:12.584Z,20.20
2019-04-18T14:30:42.064Z,20.20
2019-04-18T14:33:11.343Z,20.20
2019-04-18T14:35:40.475Z,20.20
2019-04-18T14:38:09.564Z,20.20
2019-04-18T14:40:38.794Z,20.20
2019-04-18T14:43:07.981Z,20.20
2019-04-18T14:45:37.135Z,20.20
2019-04-18T14:48:10.217Z,20.20
2019-04-18T14:50:37.509Z,20.20
2019-04-18T14:53:06.680Z,20.10
2019-04-18T14:55:35.892Z,20.10
2019-04-18T14:58:05.098Z,20.10
2019-04-18T15:00:43.122Z,20.10
2019-04-18T15:03:06.041Z,20.20
2019-04-18T15:05:36.008Z,20.20
2019-04-18T15:08:06.058Z,20.10
2019-04-18T15:10:36.310Z,20.20
2019-04-18T15:13:06.192Z,20.20
2019-04-18T15:15:35.577Z,20.10
2019-04-18T15:18:04.905Z,20.10
2019-04-18T15:20:34.612Z,20.10
2019-04-18T15:23:03.969Z,20.10
2019-04-18T15:25:33.812Z,20.10
2019-04-18T15:28:03.603Z,20.00
2019-04-18T15:30:32.870Z,20.00
2019-04-18T15:33:09.880Z,20.00
2019-04-18T15:35:32.951Z,20.00
2019-04-18T15:38:02.082Z,19.90
2019-04-18T15:40:33.328Z,19.90
2019-04-18T15:43:03.268Z,19.90
2019-04-18T15:46:03.743Z,19.90
2019-04-18T15:48:33.383Z,19.90
2019-04-18T15:51:02.531Z,19.90
2019-04-18T15:53:34.670Z,19.80
2019-04-18T15:56:03.632Z,19.80
2019-04-18T15:58:33.521Z,19.80
2019-04-18T16:01:03.758Z,19.70
2019-04-18T16:03:32.879Z,19.70
2019-04-18T16:06:02.091Z,19.70
2019-04-18T16:08:31.231Z,19.60
2019-04-18T16:11:01.973Z,19.60
2019-04-18T16:13:31.152Z,19.60
2019-04-18T16:16:00.663Z,19.50
2019-04-18T16:18:31.124Z,19.50
2019-04-18T16:21:00.298Z,19.50
2019-04-18T16:23:29.563Z,19.40
2019-04-18T16:25:58.758Z,19.40
2019-04-18T16:28:28.363Z,19.30
2019-04-18T16:30:57.644Z,19.30
2019-04-18T16:33:38.377Z,19.30
2019-04-18T16:35:57.665Z,19.20
2019-04-18T16:38:27.151Z,19.10
2019-04-18T16:40:56.292Z,19.10
2019-04-18T16:43:26.245Z,19.10
2019-04-18T16:45:55.477Z,19.00
2019-04-18T16:48:24.920Z,19.00
2019-04-18T16:50:54.130Z,18.90
2019-04-18T16:53:28.454Z,18.90
2019-04-18T16:55:57.913Z,18.80
2019-04-18T16:58:27.064Z,18.80
2019-04-18T17:00:56.308Z,18.70
2019-04-18T17:03:25.411Z,18.70
2019-04-18T17:05:54.688Z,18.60
2019-04-18T17:08:24.203Z,18.60
2019-04-18T17:10:53.343Z,18.50
2019-04-18T17:13:22.503Z,18.40
2019-04-18T17:15:51.718Z,18.30
2019-04-18T17:18:24.109Z,18.30
2019-04-18T17:20:53.652Z,18.20
2019-04-18T17:23:25.642Z,18.20
2019-04-18T17:25:55.692Z,18.10
2019-04-18T17:28:26.133Z,18.10
2019-04-18T17:30:57.516Z,18.00
2019-04-18T17:33:26.756Z,17.90
2019-04-18T17:36:11.726Z,17.80
2019-04-18T17:38:49.773Z,17.80
2019-04-18T17:41:05.864Z,17.70
2019-04-18T17:43:29.268Z,17.60
2019-04-18T17:46:07.328Z,17.50
2019-04-18T17:48:37.505Z,17.50
2019-04-18T17:51:10.953Z,17.40
2019-04-18T17:53:50.957Z,17.30
2019-04-18T17:56:18.147Z,17.20
2019-04-18T17:58:40.609Z,17.20
2019-04-18T18:01:11.279Z,17.10
2019-04-18T18:03:44.796Z,17.00
2019-04-18T18:06:15.895Z,16.90
2019-04-18T18:08:48.995Z,16.90
2019-04-18T18:11:14.993Z,16.80
2019-04-18T18:13:43.741Z,16.70
2019-04-18T18:16:20.937Z,16.60
2019-04-18T18:18:47.897Z,16.50
2019-04-18T18:21:18.444Z,16.40
2019-04-18T18:23:53.427Z,16.40
2019-04-18T18:26:23.503Z,16.30
2019-04-18T18:28:54.106Z,16.20
2019-04-18T18:31:36.915Z,16.10
2019-04-18T18:34:11.185Z,16.10
2019-04-18T18:36:59.191Z,16.00
2019-04-18T18:39:34.912Z,15.90
2019-04-18T18:42:02.525Z,15.90
2019-04-18T18:44:39.669Z,15.80
2019-04-18T18:47:00.925Z,15.80
2019-04-18T18:49:30.035Z,15.70
2019-04-18T18:51:59.430Z,15.60
2019-04-18T18:54:34.289Z,15.60
2019-04-18T18:57:06.736Z,15.50
2019-04-18T18:59:33.759Z,15.40
2019-04-18T19:02:08.506Z,15.40
2019-04-18T19:04:31.908Z,15.30
2019-04-18T19:07:01.982Z,15.30
2019-04-18T19:09:49.538Z,15.20
2019-04-18T19:12:14.521Z,15.20
2019-04-18T19:14:38.658Z,15.20
2019-04-18T19:17:10.887Z,15.10
2019-04-18T19:19:35.596Z,15.10
2019-04-18T19:22:05.546Z,15.10
2019-04-18T19:24:35.531Z,15.00
2019-04-18T19:27:16.526Z,15.00
2019-04-18T19:29:41.493Z,15.00
2019-04-18T19:32:08.067Z,14.90
2019-04-18T19:34:37.751Z,14.90
2019-04-18T19:37:20.816Z,14.90
2019-04-18T19:40:00.681Z,14.90
2019-04-18T19:42:14.496Z,14.90
2019-04-18T19:44:39.448Z,14.90
2019-04-18T19:47:08.764Z,14.90
2019-04-18T19:49:38.061Z,14.90
2019-04-18T19:52:14.375Z,14.90
2019-04-18T19:54:40.975Z,14.90
2019-04-18T19:57:09.995Z,14.90
2019-04-18T19:59:40.422Z,14.80
2019-04-18T20:02:09.632Z,14.80
2019-04-18T20:04:40.205Z,14.80
2019-04-18T20:07:23.302Z,14.70
2019-04-18T20:09:54.978Z,14.60
2019-04-18T20:12:24.059Z,14.50
2019-04-18T20:14:42.415Z,14.40
2019-04-18T20:17:13.522Z,14.20
2019-04-18T20:19:43.648Z,14.00
2019-04-18T20:22:13.850Z,13.80
2019-04-18T20:24:43.864Z,13.60
2019-04-18T20:27:18.139Z,13.40
2019-04-18T20:29:50.641Z,13.20
2019-04-18T20:32:24.991Z,13.10
2019-04-18T20:34:51.964Z,13.00
2019-04-18T20:37:35.404Z,12.80
2019-04-18T20:40:17.899Z,12.60
2019-04-18T20:42:39.698Z,12.50
2019-04-18T20:45:25.033Z,12.40
2019-04-18T20:47:39.674Z,12.20
2019-04-18T20:50:05.964Z,12.10
2019-04-18T20:52:48.374Z,12.00
2019-04-18T20:55:20.193Z,11.90
2019-04-18T20:57:36.861Z,11.80
2019-04-18T21:00:01.070Z,11.70
2019-04-18T21:02:32.003Z,11.60
2019-04-18T21:05:01.364Z,11.50
2019-04-18T21:07:39.600Z,11.40
2019-04-18T21:10:08.455Z,11.30
2019-04-18T21:12:32.304Z,11.20
2019-04-18T21:15:01.762Z,11.10
2019-04-18T21:17:32.535Z,11.00
2019-04-18T21:20:01.880Z,10.90
2019-04-18T21:22:32.503Z,10.80
2019-04-18T21:25:01.988Z,10.70
2019-04-18T21:27:34.775Z,10.60
2019-04-18T21:30:02.529Z,10.60
2019-04-18T21:32:33.103Z,10.50
2019-04-18T21:35:04.819Z,10.50
2019-04-18T21:37:41.743Z,10.40
2019-04-18T21:40:14.176Z,10.30
2019-04-18T21:42:40.642Z,10.20
2019-04-18T21:45:11.877Z,10.10
2019-04-18T21:47:41.236Z,10.10
2019-04-18T21:50:13.297Z,10.00
2019-04-18T21:52:42.625Z,9.90
2019-04-18T21:55:13.225Z,9.90
2019-04-18T21:57:44.553Z,9.80
2019-04-18T22:00:30.981Z,9.70
2019-04-18T22:03:03.290Z,9.70
2019-04-18T22:05:30.315Z,9.60
2019-04-18T22:08:05.295Z,9.60
2019-04-18T22:10:34.788Z,9.50
2019-04-18T22:13:02.158Z,9.50
2019-04-18T22:15:36.787Z,9.50
2019-04-18T22:18:03.560Z,9.40
2019-04-18T22:20:32.857Z,9.30
2019-04-18T22:23:02.088Z,9.30
2019-04-18T22:25:36.612Z,9.30
2019-04-18T22:28:05.462Z,9.20
2019-04-18T22:30:36.975Z,9.10
2019-04-18T22:33:21.615Z,9.10
2019-04-18T22:35:55.075Z,9.00
2019-04-18T22:38:32.176Z,9.00
2019-04-18T22:40:58.588Z,8.90
2019-04-18T22:43:32.933Z,8.90
2019-04-18T22:45:58.748Z,8.80
2019-04-18T22:48:31.790Z,8.80
2019-04-18T22:50:59.093Z,8.80
2019-04-18T22:53:29.017Z,8.70
2019-04-18T22:56:02.367Z,8.80
2019-04-18T22:58:29.324Z,8.70
2019-04-18T23:01:01.818Z,8.70
2019-04-18T23:03:31.100Z,8.70
2019-04-18T23:06:00.855Z,8.60
2019-04-18T23:08:34.745Z,8.60
2019-04-18T23:11:07.382Z,8.60
2019-04-18T23:13:36.976Z,8.50
2019-04-18T23:16:12.821Z,8.40
2019-04-18T23:18:37.469Z,8.40
2019-04-18T23:21:11.988Z,8.30
2019-04-18T23:23:38.392Z,8.20
2019-04-18T23:26:11.159Z,8.10
2019-04-18T23:28:41.177Z,8.10
2019-04-18T23:31:14.988Z,8.00
2019-04-18T23:33:41.336Z,7.90
2019-04-18T23:36:11.926Z,7.90
2019-04-18T23:38:44.431Z,7.90
2019-04-18T23:41:16.928Z,7.80
2019-04-18T23:43:44.047Z,7.80
2019-04-18T23:46:18.119Z,7.80
2019-04-18T23:48:45.081Z,7.80
2019-04-18T23:51:14.931Z,7.70
2019-04-18T23:53:48.559Z,7.70
2019-04-18T23:56:16.678Z,7.60
2019-04-18T23:58:51.897Z,7.60
